Terminal Aerodrome Forecast
Issued by NWS

Home | Current Version | Previous Version | Text Only | Print | Product List | Glossary On
Versions: 1 2 3 4 5 6 7 8 9 10 11 12
000
FTUS45 KGJT 200520
TAFMTJ
TAF
KMTJ 200520Z 2006/2106 14007KT P6SM FEW150
     FM201900 32004KT P6SM FEW250
     FM202000 33007KT P6SM FEW110 BKN200
     FM210200 16004KT P6SM BKN130=

USA.gov is the U.S. government's official web portal to all federal, state and local government web resources and services.